Time;durP1;ratioP1;P1;durP2;ratioP2;P2;SDS_P1;SDS_P2;PMS_P1;PMS_P2;Temp;Humidity;BMP_temperature;BMP_pressure;BME280_temperature;BME280_humidity;BME280_pressure;Samples;Min_cycle;Max_cycle;Signal;HPM_P1;HPM_P2
2023/10/03 00:02:23;;;;;;;40.08;18.02;;;;;;;;;;4991619;28;25150;-72
2023/10/03 00:04:49;;;;;;;39.60;17.95;;;;;;;;;;4973268;28;25103;-71
2023/10/03 00:07:15;;;;;;;45.08;19.83;;;;;;;;;;4981253;28;25088;-70
2023/10/03 00:09:41;;;;;;;41.80;17.38;;;;;;;;;;4986524;28;25134;-70
2023/10/03 00:12:08;;;;;;;47.55;19.50;;;;;;;;;;4977501;28;25122;-70
2023/10/03 00:14:34;;;;;;;49.92;19.55;;;;;;;;;;4981553;28;25114;-71
2023/10/03 00:17:00;;;;;;;44.08;18.58;;;;;;;;;;4989787;28;25148;-70
2023/10/03 00:19:26;;;;;;;48.13;18.88;;;;;;;;;;4988195;28;25067;-69
2023/10/03 00:21:52;;;;;;;49.40;20.63;;;;;;;;;;4985359;28;25050;-71
2023/10/03 00:24:19;;;;;;;49.30;19.63;;;;;;;;;;4987235;28;25054;-72
2023/10/03 00:26:45;;;;;;;48.05;19.67;;;;;;;;;;4984396;28;25164;-73
2023/10/03 00:29:14;;;;;;;47.67;20.08;;;;;;;;;;4994061;28;25069;-70
2023/10/03 00:31:44;;;;;;;51.15;19.15;;;;;;;;;;4988061;28;25058;-70
2023/10/03 00:34:12;;;;;;;55.67;22.13;;;;;;;;;;5007415;28;25051;-70
2023/10/03 00:36:38;;;;;;;51.78;20.52;;;;;;;;;;5003763;28;25069;-72
2023/10/03 00:39:06;;;;;;;52.45;20.95;;;;;;;;;;4973600;28;25064;-69
2023/10/03 00:41:34;;;;;;;49.20;20.40;;;;;;;;;;4983204;28;25067;-73
2023/10/03 00:44:04;;;;;;;53.33;19.90;;;;;;;;;;4994066;28;25145;-72
2023/10/03 00:46:32;;;;;;;52.03;21.40;;;;;;;;;;4984517;28;25060;-71
2023/10/03 00:49:04;;;;;;;44.40;19.60;;;;;;;;;;5000072;28;25075;-70
2023/10/03 00:51:31;;;;;;;;;;;;;;;;;;5005299;28;25082;-73
2023/10/03 00:53:58;;;;;;;47.90;19.35;;;;;;;;;;5008534;28;25052;-71
2023/10/03 00:56:24;;;;;;;49.55;20.92;;;;;;;;;;4992051;28;25099;-69
2023/10/03 00:58:51;;;;;;;43.65;19.50;;;;;;;;;;4994624;28;25069;-72
2023/10/03 01:01:21;;;;;;;49.28;19.15;;;;;;;;;;4993621;28;25070;-72
2023/10/03 01:03:48;;;;;;;48.90;20.00;;;;;;;;;;4975342;28;25073;-72
2023/10/03 01:06:15;;;;;;;49.83;20.70;;;;;;;;;;4997599;28;25078;-70
2023/10/03 01:08:47;;;;;;;46.67;18.05;;;;;;;;;;4981228;28;25055;-71
2023/10/03 01:11:17;;;;;;;41.08;19.75;;;;;;;;;;4986483;28;25073;-69
2023/10/03 01:13:47;;;;;;;53.30;20.63;;;;;;;;;;4985815;28;25120;-70
2023/10/03 01:16:13;;;;;;;48.78;19.80;;;;;;;;;;5000556;28;25169;-73
2023/10/03 01:18:41;;;;;;;47.75;20.42;;;;;;;;;;4996036;28;25060;-71
2023/10/03 01:21:10;;;;;;;47.58;20.23;;;;;;;;;;4987258;28;25098;-70
2023/10/03 01:23:39;;;;;;;47.25;20.20;;;;;;;;;;4989363;28;25038;-73
2023/10/03 01:26:06;;;;;;;46.30;19.88;;;;;;;;;;4991537;28;25110;-72
2023/10/03 01:28:32;;;;;;;45.13;20.52;;;;;;;;;;4984199;28;25080;-73
2023/10/03 01:30:58;;;;;;;45.63;18.25;;;;;;;;;;4980139;28;25066;-72
2023/10/03 01:33:28;;;;;;;48.55;19.60;;;;;;;;;;4980127;28;25098;-73
2023/10/03 01:35:55;;;;;;;42.20;17.55;;;;;;;;;;4983486;28;25056;-71
2023/10/03 01:38:22;;;;;;;55.60;19.90;;;;;;;;;;4974749;28;25052;-73
2023/10/03 01:40:58;;;;;;;39.55;17.25;;;;;;;;;;4982436;28;25134;-73
2023/10/03 01:43:24;;;;;;;47.35;18.38;;;;;;;;;;4975839;28;25121;-70
2023/10/03 01:45:50;;;;;;;42.25;18.63;;;;;;;;;;4989034;28;25047;-73
2023/10/03 01:48:18;;;;;;;38.60;16.15;;;;;;;;;;4987908;28;25058;-69
2023/10/03 01:50:44;;;;;;;43.40;17.55;;;;;;;;;;4984040;28;25160;-70
2023/10/03 01:53:11;;;;;;;40.47;17.33;;;;;;;;;;4979744;28;25072;-71
2023/10/03 01:55:38;;;;;;;42.53;17.33;;;;;;;;;;4986994;28;25110;-71
2023/10/03 01:58:05;;;;;;;38.22;17.20;;;;;;;;;;4981887;28;25053;-71
2023/10/03 02:00:34;;;;;;;36.58;15.02;;;;;;;;;;4968576;28;25053;-73
2023/10/03 02:03:05;;;;;;;41.60;15.52;;;;;;;;;;4984447;28;25048;-70
2023/10/03 02:05:33;;;;;;;37.35;14.82;;;;;;;;;;4990143;28;25064;-70
2023/10/03 02:08:01;;;;;;;34.00;14.52;;;;;;;;;;4977369;28;25098;-72
2023/10/03 02:10:28;;;;;;;35.72;14.80;;;;;;;;;;4990552;28;25051;-74
2023/10/03 02:12:55;;;;;;;33.53;13.98;;;;;;;;;;4977819;28;25151;-72
2023/10/03 02:15:23;;;;;;;38.90;14.65;;;;;;;;;;4984274;28;25158;-72
2023/10/03 02:17:50;;;;;;;38.20;14.25;;;;;;;;;;4967176;28;25092;-75
2023/10/03 02:20:25;;;;;;;32.85;13.20;;;;;;;;;;4986736;28;25070;-72
2023/10/03 02:22:55;;;;;;;32.63;12.82;;;;;;;;;;4982112;28;25093;-72
2023/10/03 02:25:22;;;;;;;33.55;13.70;;;;;;;;;;4976771;28;25085;-73
2023/10/03 02:27:49;;;;;;;33.30;13.30;;;;;;;;;;4990065;28;25123;-71
2023/10/03 02:30:19;;;;;;;30.20;12.95;;;;;;;;;;4965069;28;25051;-73
2023/10/03 02:32:45;;;;;;;34.80;13.32;;;;;;;;;;4986303;28;25106;-70
2023/10/03 02:35:14;;;;;;;35.85;13.85;;;;;;;;;;4986198;28;25140;-72
2023/10/03 02:37:40;;;;;;;34.00;13.77;;;;;;;;;;4979968;28;25061;-73
2023/10/03 02:40:07;;;;;;;27.67;11.77;;;;;;;;;;4996188;28;25094;-70
2023/10/03 02:42:37;;;;;;;26.58;11.80;;;;;;;;;;4993725;28;25066;-72
2023/10/03 02:45:04;;;;;;;30.65;12.98;;;;;;;;;;4983263;28;25065;-70
2023/10/03 02:47:30;;;;;;;29.10;12.02;;;;;;;;;;4992771;28;25083;-72
2023/10/03 02:49:56;;;;;;;28.05;12.25;;;;;;;;;;4966205;28;25092;-72
2023/10/03 02:52:22;;;;;;;26.73;11.65;;;;;;;;;;4984615;28;25163;-71
2023/10/03 02:54:48;;;;;;;34.40;12.48;;;;;;;;;;4969477;28;25100;-72
2023/10/03 02:57:15;;;;;;;25.58;11.32;;;;;;;;;;4982637;28;25085;-71
2023/10/03 02:59:44;;;;;;;27.60;12.30;;;;;;;;;;4986393;28;25073;-71
2023/10/03 03:02:14;;;;;;;27.17;10.63;;;;;;;;;;4983629;28;25063;-73
2023/10/03 03:04:41;;;;;;;34.88;11.18;;;;;;;;;;4980928;28;25083;-73
2023/10/03 03:07:08;;;;;;;25.05;10.30;;;;;;;;;;4979389;28;25087;-72
2023/10/03 03:09:36;;;;;;;21.02;9.73;;;;;;;;;;4983264;28;25046;-71
2023/10/03 03:12:03;;;;;;;24.33;9.48;;;;;;;;;;4982005;28;25152;-71
2023/10/03 03:14:29;;;;;;;23.27;9.85;;;;;;;;;;4986676;28;25076;-72
2023/10/03 03:16:56;;;;;;;22.40;9.68;;;;;;;;;;4983446;28;25054;-74
2023/10/03 03:19:23;;;;;;;21.45;9.73;;;;;;;;;;4985869;28;25072;-72
2023/10/03 03:21:50;;;;;;;26.98;9.35;;;;;;;;;;4985442;28;25138;-72
2023/10/03 03:24:28;;;;;;;19.85;8.85;;;;;;;;;;4985100;28;25074;-73
2023/10/03 03:26:58;;;;;;;17.08;8.65;;;;;;;;;;4976859;28;25141;-72
2023/10/03 03:29:35;;;;;;;18.58;7.55;;;;;;;;;;4983751;28;25072;-70
2023/10/03 03:32:01;;;;;;;31.02;6.57;;;;;;;;;;4976716;28;25071;-71
2023/10/03 03:34:28;;;;;;;21.08;6.50;;;;;;;;;;4982539;28;25067;-70
2023/10/03 03:37:14;;;;;;;11.43;4.60;;;;;;;;;;4984069;28;25110;-73
2023/10/03 03:39:53;;;;;;;19.52;5.40;;;;;;;;;;4988391;28;25092;-73
2023/10/03 03:42:22;;;;;;;18.05;5.72;;;;;;;;;;4992201;28;25086;-72
2023/10/03 03:44:49;;;;;;;16.13;5.68;;;;;;;;;;4991337;28;25099;-72
2023/10/03 03:47:18;;;;;;;15.55;5.78;;;;;;;;;;4983911;28;25156;-72
2023/10/03 03:49:44;;;;;;;21.33;6.72;;;;;;;;;;4988828;28;25113;-72
2023/10/03 03:52:12;;;;;;;17.85;6.00;;;;;;;;;;4983309;28;25085;-71
2023/10/03 03:54:39;;;;;;;16.67;5.95;;;;;;;;;;4984236;28;25099;-73
2023/10/03 03:57:06;;;;;;;15.18;5.03;;;;;;;;;;4976661;28;25187;-70
2023/10/03 03:59:32;;;;;;;19.20;6.30;;;;;;;;;;4984537;28;25122;-70
2023/10/03 04:02:00;;;;;;;16.23;5.35;;;;;;;;;;4976592;28;25074;-70
2023/10/03 04:04:26;;;;;;;20.35;5.97;;;;;;;;;;4980834;28;25117;-72
2023/10/03 04:06:52;;;;;;;14.93;5.55;;;;;;;;;;4984555;28;25054;-71
2023/10/03 04:09:19;;;;;;;15.20;4.80;;;;;;;;;;4985461;28;25112;-70
2023/10/03 04:11:46;;;;;;;21.42;6.93;;;;;;;;;;4978477;28;25061;-70
2023/10/03 04:14:12;;;;;;;16.02;6.20;;;;;;;;;;4992215;28;25087;-72
2023/10/03 04:16:39;;;;;;;13.95;4.50;;;;;;;;;;4958234;28;25097;-72
2023/10/03 04:19:07;;;;;;;14.35;4.85;;;;;;;;;;4980945;28;25072;-74
2023/10/03 04:21:35;;;;;;;14.45;4.60;;;;;;;;;;4983520;28;25071;-68
2023/10/03 04:24:01;;;;;;;19.52;5.22;;;;;;;;;;4983915;28;25076;-70
2023/10/03 04:26:27;;;;;;;13.80;3.95;;;;;;;;;;4987386;28;25134;-71
2023/10/03 04:28:53;;;;;;;10.40;4.47;;;;;;;;;;4957510;28;25073;-73
2023/10/03 04:31:19;;;;;;;12.52;4.47;;;;;;;;;;4984108;28;25122;-70
2023/10/03 04:33:45;;;;;;;12.23;4.97;;;;;;;;;;4985393;28;25087;-73
2023/10/03 04:36:12;;;;;;;11.85;4.65;;;;;;;;;;4977664;28;25067;-70
2023/10/03 04:38:40;;;;;;;10.65;4.32;;;;;;;;;;4987838;28;25080;-72
2023/10/03 04:41:09;;;;;;;12.23;3.88;;;;;;;;;;4993257;28;25046;-75
2023/10/03 04:43:35;;;;;;;18.08;5.43;;;;;;;;;;5004500;28;25082;-73
2023/10/03 04:46:04;;;;;;;14.30;4.28;;;;;;;;;;5005115;28;25078;-70
2023/10/03 04:48:30;;;;;;;13.82;4.95;;;;;;;;;;5012429;28;25069;-70
2023/10/03 04:50:59;;;;;;;11.45;4.13;;;;;;;;;;5002328;28;25087;-71
2023/10/03 04:53:25;;;;;;;14.65;4.53;;;;;;;;;;5006367;28;25060;-68
2023/10/03 04:55:52;;;;;;;15.25;5.63;;;;;;;;;;5005549;28;25083;-71
2023/10/03 04:58:18;;;;;;;22.05;5.60;;;;;;;;;;4987633;28;25090;-73
2023/10/03 05:00:44;;;;;;;12.48;4.60;;;;;;;;;;4988365;28;25064;-73
2023/10/03 05:03:10;;;;;;;17.92;5.40;;;;;;;;;;4986967;28;25064;-74
2023/10/03 05:05:37;;;;;;;15.95;5.40;;;;;;;;;;4975286;28;25063;-73
2023/10/03 05:08:03;;;;;;;10.55;4.07;;;;;;;;;;4984631;28;25095;-70
2023/10/03 05:10:36;;;;;;;12.52;5.60;;;;;;;;;;4979166;28;25091;-72
2023/10/03 05:13:01;;;;;;;12.60;6.15;;;;;;;;;;4986329;28;25072;-71
2023/10/03 05:15:28;;;;;;;12.90;5.53;;;;;;;;;;4967466;28;25129;-72
2023/10/03 05:17:54;;;;;;;17.50;5.78;;;;;;;;;;4985224;28;25150;-72
2023/10/03 05:20:21;;;;;;;13.27;5.63;;;;;;;;;;4965816;28;25112;-74
2023/10/03 05:22:47;;;;;;;16.77;6.57;;;;;;;;;;4986344;28;25064;-72
2023/10/03 05:25:17;;;;;;;12.98;5.40;;;;;;;;;;4982990;28;25067;-72
2023/10/03 05:27:43;;;;;;;18.98;5.85;;;;;;;;;;4967610;28;25101;-71
2023/10/03 05:30:10;;;;;;;18.33;7.90;;;;;;;;;;4983999;28;25208;-73
2023/10/03 05:32:37;;;;;;;17.55;5.40;;;;;;;;;;4983886;28;25130;-70
2023/10/03 05:35:04;;;;;;;17.67;5.85;;;;;;;;;;4964540;28;25131;-73
2023/10/03 05:37:33;;;;;;;16.25;5.18;;;;;;;;;;4981966;28;25067;-74
2023/10/03 05:39:59;;;;;;;20.20;5.25;;;;;;;;;;4980225;28;25069;-70
2023/10/03 05:42:26;;;;;;;12.60;4.10;;;;;;;;;;4983842;28;25058;-73
2023/10/03 05:44:53;;;;;;;14.32;5.60;;;;;;;;;;4984176;28;25191;-68
2023/10/03 05:47:19;;;;;;;14.20;4.78;;;;;;;;;;4980759;28;25066;-70
2023/10/03 05:49:45;;;;;;;20.92;5.72;;;;;;;;;;4991103;28;25078;-71
2023/10/03 05:52:12;;;;;;;13.73;5.25;;;;;;;;;;5003262;28;25062;-73
2023/10/03 05:54:38;;;;;;;13.35;4.55;;;;;;;;;;4996051;28;25067;-74
2023/10/03 05:57:04;;;;;;;13.05;5.00;;;;;;;;;;4992030;28;25067;-73
2023/10/03 05:59:30;;;;;;;13.38;5.32;;;;;;;;;;4995571;28;25075;-69
2023/10/03 06:01:58;;;;;;;15.25;5.55;;;;;;;;;;4997593;28;25106;-68
2023/10/03 06:04:24;;;;;;;18.92;5.18;;;;;;;;;;4987936;28;25100;-69
2023/10/03 06:06:50;;;;;;;19.73;5.30;;;;;;;;;;4978624;28;25071;-69
2023/10/03 06:09:16;;;;;;;10.38;4.90;;;;;;;;;;4985213;28;25078;-70
2023/10/03 06:11:42;;;;;;;16.48;4.90;;;;;;;;;;4993747;28;25121;-69
2023/10/03 06:14:08;;;;;;;12.43;5.28;;;;;;;;;;4982576;28;25115;-72
2023/10/03 06:16:36;;;;;;;19.95;6.05;;;;;;;;;;4993692;28;25084;-70
2023/10/03 06:19:03;;;;;;;18.33;5.65;;;;;;;;;;4990653;28;25093;-70
2023/10/03 06:21:29;;;;;;;17.00;7.18;;;;;;;;;;4987641;28;25059;-71
2023/10/03 06:23:55;;;;;;;10.98;4.60;;;;;;;;;;4971705;28;25167;-69
2023/10/03 06:26:21;;;;;;;10.13;4.43;;;;;;;;;;4979440;28;25094;-72
2023/10/03 06:28:50;;;;;;;10.43;4.18;;;;;;;;;;4985974;28;25107;-72
2023/10/03 06:31:17;;;;;;;10.95;3.67;;;;;;;;;;4989824;28;25082;-75
2023/10/03 06:33:43;;;;;;;12.73;3.63;;;;;;;;;;4984359;28;25163;-72
2023/10/03 06:36:11;;;;;;;9.23;3.20;;;;;;;;;;4963378;28;25072;-73
2023/10/03 06:38:37;;;;;;;10.23;3.58;;;;;;;;;;4958157;28;25069;-72
2023/10/03 06:41:04;;;;;;;9.27;2.80;;;;;;;;;;4983488;28;25062;-73
2023/10/03 06:43:30;;;;;;;11.93;3.78;;;;;;;;;;4981332;28;25054;-71
2023/10/03 06:45:57;;;;;;;12.75;3.28;;;;;;;;;;4984532;28;25062;-73
2023/10/03 06:48:24;;;;;;;11.38;3.28;;;;;;;;;;4992702;28;25057;-72
2023/10/03 06:50:50;;;;;;;5.88;2.35;;;;;;;;;;4988709;28;25103;-72
2023/10/03 06:53:18;;;;;;;11.95;3.08;;;;;;;;;;4976018;28;25081;-71
2023/10/03 06:55:44;;;;;;;9.80;2.67;;;;;;;;;;4983590;28;25052;-72
2023/10/03 06:58:12;;;;;;;9.55;2.65;;;;;;;;;;4994908;28;25162;-72
2023/10/03 07:00:39;;;;;;;11.25;2.95;;;;;;;;;;4977292;28;25180;-71
2023/10/03 07:03:05;;;;;;;15.68;3.20;;;;;;;;;;4984500;28;25069;-72
2023/10/03 07:05:33;;;;;;;6.57;2.40;;;;;;;;;;4993468;28;25067;-72
2023/10/03 07:07:59;;;;;;;11.80;3.28;;;;;;;;;;4981540;28;25066;-72
2023/10/03 07:10:25;;;;;;;7.75;2.65;;;;;;;;;;4984078;28;25131;-72
2023/10/03 07:12:51;;;;;;;12.95;2.55;;;;;;;;;;4965730;28;25157;-73
2023/10/03 07:15:18;;;;;;;10.55;3.10;;;;;;;;;;4973763;28;25072;-72
2023/10/03 07:17:44;;;;;;;8.55;2.72;;;;;;;;;;4982340;28;25078;-72
2023/10/03 07:20:12;;;;;;;10.73;2.58;;;;;;;;;;4983488;28;25036;-72
2023/10/03 07:22:38;;;;;;;8.00;2.22;;;;;;;;;;4981119;28;25082;-73
2023/10/03 07:25:06;;;;;;;11.50;2.38;;;;;;;;;;4995617;28;25078;-74
2023/10/03 07:27:34;;;;;;;10.25;2.25;;;;;;;;;;4990594;28;25131;-72
2023/10/03 07:30:03;;;;;;;5.68;2.38;;;;;;;;;;4988737;28;25057;-72
2023/10/03 07:32:32;;;;;;;13.18;2.90;;;;;;;;;;4987388;28;25306;-71
2023/10/03 07:34:58;;;;;;;8.07;2.10;;;;;;;;;;4975684;28;25075;-71
2023/10/03 07:37:24;;;;;;;6.07;2.20;;;;;;;;;;4996492;28;25071;-70
2023/10/03 07:39:50;;;;;;;5.95;2.00;;;;;;;;;;4981683;28;25079;-72
2023/10/03 07:42:17;;;;;;;7.93;2.53;;;;;;;;;;4986273;28;25061;-73
2023/10/03 07:44:44;;;;;;;7.30;2.17;;;;;;;;;;4974104;28;25059;-71
2023/10/03 07:47:12;;;;;;;3.53;1.10;;;;;;;;;;4985316;28;25056;-70
2023/10/03 07:49:41;;;;;;;3.88;1.10;;;;;;;;;;4982789;28;25059;-71
2023/10/03 07:52:07;;;;;;;4.60;1.13;;;;;;;;;;4977505;28;25091;-75
2023/10/03 07:54:36;;;;;;;2.35;0.77;;;;;;;;;;4992390;28;25172;-73
2023/10/03 07:57:05;;;;;;;3.80;0.90;;;;;;;;;;4976329;28;25084;-72
2023/10/03 07:59:31;;;;;;;4.07;1.20;;;;;;;;;;4981436;28;25094;-71
2023/10/03 08:02:04;;;;;;;2.58;1.00;;;;;;;;;;4985804;28;25076;-72
2023/10/03 08:04:31;;;;;;;3.13;0.98;;;;;;;;;;4982366;28;25070;-74
2023/10/03 08:06:57;;;;;;;3.13;0.98;;;;;;;;;;4984536;28;25124;-73
2023/10/03 08:09:24;;;;;;;5.15;1.85;;;;;;;;;;4984956;28;25137;-73
2023/10/03 08:11:52;;;;;;;3.08;1.08;;;;;;;;;;4979255;28;25164;-71
2023/10/03 08:14:18;;;;;;;5.07;1.27;;;;;;;;;;4974423;28;25111;-71
2023/10/03 08:16:45;;;;;;;4.55;1.40;;;;;;;;;;4988712;28;25051;-71
2023/10/03 08:19:21;;;;;;;5.03;1.10;;;;;;;;;;4980653;28;25135;-70
2023/10/03 08:21:48;;;;;;;5.90;1.20;;;;;;;;;;4986963;28;25137;-72
2023/10/03 08:24:24;;;;;;;5.85;1.50;;;;;;;;;;4984601;28;25063;-73
2023/10/03 08:26:51;;;;;;;8.95;1.75;;;;;;;;;;4985677;28;25066;-74
2023/10/03 08:29:24;;;;;;;2.90;1.30;;;;;;;;;;4982638;28;25142;-69
2023/10/03 08:31:57;;;;;;;5.30;1.63;;;;;;;;;;4986445;28;25074;-72
2023/10/03 08:34:29;;;;;;;6.07;1.33;;;;;;;;;;4985180;28;25078;-73
2023/10/03 08:36:59;;;;;;;12.35;1.80;;;;;;;;;;4982318;28;25069;-69
2023/10/03 08:39:26;;;;;;;5.68;1.20;;;;;;;;;;4991166;28;25061;-70
2023/10/03 08:41:58;;;;;;;5.82;1.42;;;;;;;;;;4989193;28;25159;-73
2023/10/03 08:44:24;;;;;;;3.00;1.20;;;;;;;;;;4989742;28;25139;-72
2023/10/03 08:46:55;;;;;;;3.10;1.17;;;;;;;;;;4984935;28;25058;-74
2023/10/03 08:49:25;;;;;;;3.78;1.63;;;;;;;;;;4979544;28;25071;-70
2023/10/03 08:51:52;;;;;;;3.20;1.13;;;;;;;;;;4986270;28;25080;-73
2023/10/03 08:54:18;;;;;;;4.32;0.98;;;;;;;;;;4988940;28;25051;-76
2023/10/03 08:56:44;;;;;;;4.50;0.95;;;;;;;;;;5001236;28;25078;-71
2023/10/03 08:59:15;;;;;;;5.68;0.88;;;;;;;;;;4987284;28;25044;-71
2023/10/03 09:01:46;;;;;;;5.65;0.82;;;;;;;;;;4974897;28;25058;-73
2023/10/03 09:04:16;;;;;;;4.93;1.42;;;;;;;;;;4978256;28;25124;-70
2023/10/03 09:06:43;;;;;;;2.28;0.68;;;;;;;;;;4984210;28;25054;-72
2023/10/03 09:09:10;;;;;;;4.18;1.15;;;;;;;;;;4985963;28;25174;-70
2023/10/03 09:11:41;;;;;;;3.80;0.75;;;;;;;;;;4963616;28;25064;-71
2023/10/03 09:14:07;;;;;;;4.47;1.50;;;;;;;;;;4988141;28;25090;-69
2023/10/03 09:16:39;;;;;;;2.00;0.80;;;;;;;;;;4975647;28;25103;-73
2023/10/03 09:19:09;;;;;;;2.38;0.43;;;;;;;;;;4992858;28;25077;-71
2023/10/03 09:21:35;;;;;;;5.22;1.08;;;;;;;;;;4993442;28;25080;-73
2023/10/03 09:24:02;;;;;;;2.72;0.90;;;;;;;;;;4981654;28;25059;-72
2023/10/03 09:26:47;;;;;;;4.55;1.45;;;;;;;;;;5006799;28;25069;-72
2023/10/03 09:29:29;;;;;;;4.20;0.80;;;;;;;;;;4997005;28;25064;-69
2023/10/03 09:31:57;;;;;;;0.55;0.50;;;;;;;;;;4997843;28;25099;-70
2023/10/03 09:34:23;;;;;;;1.50;0.70;;;;;;;;;;5007864;28;25077;-71
2023/10/03 09:36:50;;;;;;;2.55;0.65;;;;;;;;;;5014234;28;25068;-75
2023/10/03 09:39:23;;;;;;;3.35;0.70;;;;;;;;;;4999346;28;25056;-71
2023/10/03 09:41:49;;;;;;;;;;;;;;;;;;4997662;28;25066;-72
2023/10/03 09:44:17;;;;;;;2.20;0.63;;;;;;;;;;4973063;28;25141;-67
2023/10/03 09:46:43;;;;;;;2.38;0.50;;;;;;;;;;4982071;28;25075;-74
2023/10/03 09:49:10;;;;;;;1.80;0.80;;;;;;;;;;4987554;28;25070;-71
2023/10/03 09:51:36;;;;;;;6.65;0.90;;;;;;;;;;4988653;28;25075;-72
2023/10/03 09:54:12;;;;;;;2.25;0.50;;;;;;;;;;4965870;28;25070;-69
2023/10/03 09:56:50;;;;;;;1.50;0.70;;;;;;;;;;4993780;28;25067;-71
2023/10/03 09:59:17;;;;;;;3.15;0.60;;;;;;;;;;4969022;28;25063;-71
2023/10/03 10:01:45;;;;;;;1.70;0.77;;;;;;;;;;4966957;28;25054;-71
2023/10/03 10:04:13;;;;;;;7.93;1.27;;;;;;;;;;4979930;28;25078;-73
2023/10/03 10:06:40;;;;;;;2.72;0.68;;;;;;;;;;4989291;28;25173;-72
2023/10/03 10:09:14;;;;;;;2.75;1.33;;;;;;;;;;4980529;28;25076;-71
2023/10/03 10:11:59;;;;;;;4.72;0.82;;;;;;;;;;4969763;28;25075;-71
2023/10/03 10:14:28;;;;;;;6.90;1.23;;;;;;;;;;4979203;28;25159;-71
2023/10/03 10:17:06;;;;;;;8.93;1.27;;;;;;;;;;4980239;28;25046;-72
2023/10/03 10:19:51;;;;;;;3.95;1.15;;;;;;;;;;4980400;28;25112;-69
2023/10/03 10:22:18;;;;;;;4.55;1.50;;;;;;;;;;4986915;28;25104;-73
2023/10/03 10:25:04;;;;;;;4.70;1.40;;;;;;;;;;4984230;28;25158;-72
2023/10/03 10:27:31;;;;;;;7.55;1.67;;;;;;;;;;4979712;28;25066;-69
2023/10/03 10:30:01;;;;;;;4.72;1.65;;;;;;;;;;4985274;28;25068;-70
2023/10/03 10:32:28;;;;;;;6.38;1.67;;;;;;;;;;4995422;28;25084;-71
2023/10/03 10:35:01;;;;;;;5.35;1.80;;;;;;;;;;4981484;28;25076;-68
2023/10/03 10:37:28;;;;;;;5.32;1.60;;;;;;;;;;4986986;28;25087;-74
2023/10/03 10:40:04;;;;;;;16.02;3.55;;;;;;;;;;4986055;28;25046;-70
2023/10/03 10:42:32;;;;;;;9.63;1.75;;;;;;;;;;4992506;28;25055;-71
2023/10/03 10:45:04;;;;;;;6.68;1.90;;;;;;;;;;4999709;28;25100;-72
2023/10/03 10:47:35;;;;;;;15.15;2.88;;;;;;;;;;4977089;28;25078;-72
2023/10/03 10:50:01;;;;;;;8.70;2.55;;;;;;;;;;4997900;28;25135;-74
2023/10/03 10:52:30;;;;;;;9.30;2.35;;;;;;;;;;4988961;28;25074;-73
2023/10/03 10:54:57;;;;;;;8.18;2.38;;;;;;;;;;4989089;28;25062;-72
2023/10/03 10:57:27;;;;;;;8.23;2.30;;;;;;;;;;4965366;28;25145;-71
2023/10/03 10:59:54;;;;;;;14.55;2.47;;;;;;;;;;4979493;28;25092;-70
2023/10/03 11:02:22;;;;;;;13.88;2.38;;;;;;;;;;4978978;28;25048;-70
2023/10/03 11:05:01;;;;;;;6.68;2.30;;;;;;;;;;4963599;28;25076;-76
2023/10/03 11:07:27;;;;;;;7.80;2.47;;;;;;;;;;4983003;28;25058;-74
2023/10/03 11:09:55;;;;;;;11.02;2.42;;;;;;;;;;4978335;28;25100;-74
2023/10/03 11:12:27;;;;;;;13.88;2.63;;;;;;;;;;4985266;28;25087;-71
2023/10/03 11:14:55;;;;;;;10.85;2.70;;;;;;;;;;4988064;28;25099;-71
2023/10/03 11:17:21;;;;;;;11.15;2.47;;;;;;;;;;4985831;28;25055;-70
2023/10/03 11:19:48;;;;;;;10.70;3.25;;;;;;;;;;4973565;28;25103;-71
2023/10/03 11:22:15;;;;;;;9.30;2.75;;;;;;;;;;4974565;28;25058;-72
2023/10/03 11:24:42;;;;;;;11.88;2.92;;;;;;;;;;4988931;28;25139;-71
2023/10/03 11:27:08;;;;;;;7.32;2.85;;;;;;;;;;4980124;28;25049;-70
2023/10/03 11:29:38;;;;;;;9.63;3.00;;;;;;;;;;4990824;28;25100;-73
2023/10/03 11:32:05;;;;;;;12.57;2.97;;;;;;;;;;4964218;28;25098;-71
2023/10/03 11:34:34;;;;;;;9.40;2.95;;;;;;;;;;4994686;28;25117;-72
2023/10/03 11:37:03;;;;;;;13.27;3.40;;;;;;;;;;4981493;28;25060;-76
2023/10/03 11:39:29;;;;;;;10.05;3.78;;;;;;;;;;4984126;28;25061;-72
2023/10/03 11:41:56;;;;;;;9.95;2.60;;;;;;;;;;4985203;28;25070;-72
2023/10/03 11:44:22;;;;;;;10.70;3.28;;;;;;;;;;4982714;28;25130;-72
2023/10/03 11:46:49;;;;;;;15.82;3.20;;;;;;;;;;4977387;28;25089;-75
2023/10/03 11:49:15;;;;;;;10.25;4.40;;;;;;;;;;4974801;28;25140;-70
2023/10/03 11:51:45;;;;;;;8.40;2.88;;;;;;;;;;4961322;28;25097;-73
2023/10/03 11:54:14;;;;;;;7.93;3.08;;;;;;;;;;4980696;28;25065;-72
2023/10/03 11:56:44;;;;;;;10.55;3.58;;;;;;;;;;4980369;28;25145;-72
2023/10/03 11:59:14;;;;;;;9.70;3.28;;;;;;;;;;4981617;28;25141;-72
2023/10/03 12:01:40;;;;;;;6.50;2.42;;;;;;;;;;4963973;28;25061;-71
2023/10/03 12:04:08;;;;;;;8.45;2.75;;;;;;;;;;4980056;28;25079;-71
2023/10/03 12:06:34;;;;;;;7.10;2.67;;;;;;;;;;4974544;28;25156;-71
2023/10/03 12:09:00;;;;;;;21.13;3.65;;;;;;;;;;4980990;28;25075;-72
2023/10/03 12:11:26;;;;;;;11.63;3.30;;;;;;;;;;4980859;28;25108;-74
2023/10/03 12:13:52;;;;;;;12.38;3.50;;;;;;;;;;4974950;28;25060;-72
2023/10/03 12:16:18;;;;;;;13.07;2.58;;;;;;;;;;4984946;28;25101;-72
2023/10/03 12:18:44;;;;;;;12.57;2.55;;;;;;;;;;4978481;28;25145;-71
2023/10/03 12:21:11;;;;;;;11.05;2.67;;;;;;;;;;4979546;28;25072;-71
2023/10/03 12:23:37;;;;;;;14.18;2.75;;;;;;;;;;4977462;28;25180;-72
2023/10/03 12:26:03;;;;;;;13.93;3.00;;;;;;;;;;4977073;28;25081;-69
2023/10/03 12:28:29;;;;;;;10.15;3.83;;;;;;;;;;4976029;28;25081;-72
2023/10/03 12:30:55;;;;;;;12.13;2.53;;;;;;;;;;4960460;28;25067;-70
2023/10/03 12:33:21;;;;;;;12.18;2.67;;;;;;;;;;4977490;28;25060;-72
2023/10/03 12:35:47;;;;;;;13.55;2.47;;;;;;;;;;4985332;28;25160;-72
2023/10/03 12:38:15;;;;;;;10.20;2.50;;;;;;;;;;4985639;28;25136;-71
2023/10/03 12:40:42;;;;;;;15.32;3.13;;;;;;;;;;4966991;28;25065;-71
2023/10/03 12:43:10;;;;;;;11.93;2.60;;;;;;;;;;4988792;28;25079;-71
2023/10/03 12:45:36;;;;;;;11.57;2.65;;;;;;;;;;4982995;28;25064;-72
2023/10/03 12:48:03;;;;;;;5.72;2.10;;;;;;;;;;4982786;28;25129;-72
2023/10/03 12:50:29;;;;;;;7.35;2.45;;;;;;;;;;4981796;28;25119;-71
2023/10/03 12:52:58;;;;;;;12.60;2.28;;;;;;;;;;4984460;28;25075;-71
2023/10/03 12:55:28;;;;;;;7.53;2.42;;;;;;;;;;4988836;28;25120;-71
2023/10/03 12:57:56;;;;;;;8.63;2.00;;;;;;;;;;4981131;28;25082;-71
2023/10/03 13:00:23;;;;;;;9.80;2.42;;;;;;;;;;4988017;28;25161;-72
2023/10/03 13:02:54;;;;;;;8.07;2.50;;;;;;;;;;4971572;28;25090;-72
2023/10/03 13:05:21;;;;;;;8.55;3.13;;;;;;;;;;4983022;28;25071;-72
2023/10/03 13:07:52;;;;;;;8.85;2.35;;;;;;;;;;4976831;28;25059;-70
2023/10/03 13:10:18;;;;;;;15.85;3.17;;;;;;;;;;4979467;28;25067;-70
2023/10/03 13:12:45;;;;;;;9.05;2.63;;;;;;;;;;4983270;28;25100;-72
2023/10/03 13:15:14;;;;;;;6.57;2.53;;;;;;;;;;4981545;28;25116;-70
2023/10/03 13:17:41;;;;;;;8.00;2.70;;;;;;;;;;4980848;28;25052;-71
2023/10/03 13:20:08;;;;;;;5.63;2.22;;;;;;;;;;4984191;28;25051;-68
2023/10/03 13:22:34;;;;;;;12.93;2.97;;;;;;;;;;4980669;28;25160;-69
2023/10/03 13:25:00;;;;;;;6.82;2.50;;;;;;;;;;4974853;28;25112;-70
2023/10/03 13:27:26;;;;;;;9.70;2.95;;;;;;;;;;4966757;28;25077;-70
2023/10/03 13:29:52;;;;;;;5.90;2.42;;;;;;;;;;4976651;28;25141;-70
2023/10/03 13:32:20;;;;;;;11.32;2.92;;;;;;;;;;4975976;28;25157;-71
2023/10/03 13:34:46;;;;;;;8.55;2.80;;;;;;;;;;4974236;28;25052;-72
2023/10/03 13:37:12;;;;;;;7.28;2.85;;;;;;;;;;4987981;28;25174;-74
2023/10/03 13:39:39;;;;;;;8.43;2.55;;;;;;;;;;4983741;28;25074;-72
2023/10/03 13:42:07;;;;;;;5.78;2.40;;;;;;;;;;4982143;28;25058;-71
2023/10/03 13:44:33;;;;;;;8.30;2.30;;;;;;;;;;4979776;28;25069;-71
2023/10/03 13:46:59;;;;;;;6.72;2.53;;;;;;;;;;4983794;28;25059;-74
2023/10/03 13:49:26;;;;;;;7.00;2.13;;;;;;;;;;4992572;28;25075;-70
2023/10/03 13:51:52;;;;;;;7.80;1.98;;;;;;;;;;4979690;28;25065;-71
2023/10/03 13:54:19;;;;;;;4.32;1.77;;;;;;;;;;4990736;28;25087;-73
2023/10/03 13:56:45;;;;;;;7.82;2.30;;;;;;;;;;4986973;28;25064;-71
2023/10/03 13:59:11;;;;;;;3.42;1.83;;;;;;;;;;4983799;28;25080;-69
2023/10/03 14:01:37;;;;;;;5.13;2.30;;;;;;;;;;4972140;28;25137;-71
2023/10/03 14:04:08;;;;;;;5.82;1.75;;;;;;;;;;4998864;28;25064;-70
2023/10/03 14:06:34;;;;;;;7.22;2.20;;;;;;;;;;5005410;28;25102;-72
2023/10/03 14:09:00;;;;;;;2.67;1.30;;;;;;;;;;5010775;28;25071;-71
2023/10/03 14:11:27;;;;;;;5.80;2.20;;;;;;;;;;4994238;28;25066;-70
2023/10/03 14:13:55;;;;;;;4.43;1.73;;;;;;;;;;4994550;28;25185;-72
2023/10/03 14:16:21;;;;;;;9.05;2.25;;;;;;;;;;5010480;28;25120;-72
2023/10/03 14:18:49;;;;;;;3.03;2.03;;;;;;;;;;5002496;28;25068;-71
2023/10/03 14:21:16;;;;;;;5.38;2.22;;;;;;;;;;4986317;28;25063;-71
2023/10/03 14:23:42;;;;;;;8.13;2.28;;;;;;;;;;4991176;28;25068;-72
2023/10/03 14:26:08;;;;;;;4.10;1.73;;;;;;;;;;4987995;28;25052;-72
2023/10/03 14:28:34;;;;;;;7.15;2.28;;;;;;;;;;4976102;28;25064;-72
2023/10/03 14:31:05;;;;;;;8.55;2.53;;;;;;;;;;4976811;28;25132;-74
2023/10/03 14:33:31;;;;;;;6.78;2.45;;;;;;;;;;4982218;28;25072;-71
2023/10/03 14:35:59;;;;;;;7.82;2.08;;;;;;;;;;4985945;28;25063;-71
2023/10/03 14:38:28;;;;;;;8.73;3.50;;;;;;;;;;4966582;28;25061;-72